createdAt,value
2022-12-25T00:00:05.617Z,97637.50
2022-12-25T00:02:13.339Z,97635.47
2022-12-25T00:04:21.207Z,97631.03
2022-12-25T00:06:29.529Z,97631.13
2022-12-25T00:08:38.792Z,97621.38
2022-12-25T00:10:49.244Z,97628.88
2022-12-25T00:12:57.335Z,97621.81
2022-12-25T00:15:05.300Z,97631.88
2022-12-25T00:17:13.224Z,97630.41
2022-12-25T00:19:21.171Z,97637.06
2022-12-25T00:21:29.196Z,97636.91
2022-12-25T00:23:38.367Z,97628.88
2022-12-25T00:25:46.251Z,97633.31
2022-12-25T00:27:56.847Z,97630.44
2022-12-25T00:30:04.720Z,97631.38
2022-12-25T00:32:12.931Z,97632.84
2022-12-25T00:34:20.869Z,97625.66
2022-12-25T00:36:28.907Z,97628.38
2022-12-25T00:38:38.091Z,97631.78
2022-12-25T00:40:47.459Z,97619.69
2022-12-25T00:42:55.321Z,97622.41
2022-12-25T00:45:04.999Z,97630.28
2022-12-25T00:47:13.357Z,97630.09
2022-12-25T00:49:21.651Z,97636.59
2022-12-25T00:51:29.955Z,97630.88
2022-12-25T00:53:37.820Z,97642.22
2022-12-25T00:55:45.839Z,97646.41
2022-12-25T00:57:53.711Z,97648.88
2022-12-25T01:00:04.219Z,97650.75
2022-12-25T01:02:27.555Z,97653.00
2022-12-25T01:04:35.516Z,97660.34
2022-12-25T01:06:44.001Z,97659.56
2022-12-25T01:09:04.099Z,97650.06
2022-12-25T01:11:12.135Z,97653.75
2022-12-25T01:13:19.986Z,97653.16
2022-12-25T01:15:30.813Z,97641.38
2022-12-25T01:17:38.917Z,97644.63
2022-12-25T01:19:46.837Z,97641.53
2022-12-25T01:21:54.777Z,97650.34
2022-12-25T01:24:02.721Z,97656.56
2022-12-25T01:26:12.636Z,97659.41
2022-12-25T01:28:20.600Z,97656.66
2022-12-25T01:30:31.731Z,97657.94
2022-12-25T01:32:39.657Z,97660.66
2022-12-25T01:34:52.076Z,97660.50
2022-12-25T01:37:03.671Z,97663.25
2022-12-25T01:39:11.662Z,97667.16
2022-12-25T01:41:21.444Z,97676.78
2022-12-25T01:43:31.794Z,97673.22
2022-12-25T01:45:48.705Z,97677.72
2022-12-25T01:47:56.845Z,97680.22
2022-12-25T01:50:04.814Z,97677.56
2022-12-25T01:52:21.777Z,97680.47
2022-12-25T01:54:34.467Z,97676.03
2022-12-25T01:56:45.628Z,97674.06
2022-12-25T01:58:53.757Z,97673.28
2022-12-25T02:01:04.762Z,97673.97
2022-12-25T02:03:12.771Z,97672.63
2022-12-25T02:05:26.180Z,97661.09
2022-12-25T02:07:37.702Z,97660.25
2022-12-25T02:09:45.774Z,97658.34
2022-12-25T02:12:00.127Z,97656.41
2022-12-25T02:14:08.357Z,97652.91
2022-12-25T02:16:22.859Z,97653.16
2022-12-25T02:18:40.588Z,97638.13
2022-12-25T02:21:03.726Z,97634.03
2022-12-25T02:23:43.923Z,97634.03
2022-12-25T02:26:09.915Z,97631.13
2022-12-25T02:28:25.143Z,97627.03
2022-12-25T02:30:38.880Z,97624.72
2022-12-25T02:33:15.370Z,97625.63
2022-12-25T02:35:28.294Z,97609.59
2022-12-25T02:37:43.145Z,97603.56
2022-12-25T02:40:00.340Z,97601.16
2022-12-25T02:42:14.255Z,97607.06
2022-12-25T02:44:45.479Z,97611.41
2022-12-25T02:47:06.543Z,97612.34
2022-12-25T02:49:31.314Z,97608.91
2022-12-25T02:51:56.218Z,97611.41
2022-12-25T02:54:22.975Z,97604.47
2022-12-25T02:56:45.737Z,97607.22
2022-12-25T02:59:06.283Z,97604.81
2022-12-25T03:01:33.579Z,97609.50
2022-12-25T03:03:57.103Z,97608.75
2022-12-25T03:06:19.095Z,97610.38
2022-12-25T03:08:33.271Z,97609.50
2022-12-25T03:11:00.507Z,97610.56
2022-12-25T03:13:15.695Z,97610.91
2022-12-25T03:15:36.634Z,97600.13
2022-12-25T03:17:47.198Z,97601.56
2022-12-25T03:20:07.451Z,97599.28
2022-12-25T03:22:31.537Z,97594.84
2022-12-25T03:24:51.817Z,97588.09
2022-12-25T03:27:00.558Z,97597.47
2022-12-25T03:29:08.881Z,97594.16
2022-12-25T03:31:21.449Z,97597.31
2022-12-25T03:33:46.431Z,97592.19
2022-12-25T03:36:04.174Z,97587.31
2022-12-25T03:38:46.587Z,97590.03
2022-12-25T03:41:18.999Z,97577.84
2022-12-25T03:43:46.618Z,97585.03
2022-12-25T03:46:13.105Z,97588.00
2022-12-25T03:48:33.821Z,97581.44
2022-12-25T03:51:01.759Z,97570.84
2022-12-25T03:53:26.027Z,97565.63
2022-12-25T03:55:47.518Z,97558.13
2022-12-25T03:58:07.828Z,97556.34
2022-12-25T04:00:29.563Z,97570.16
2022-12-25T04:02:52.285Z,97569.81
2022-12-25T04:05:12.727Z,97573.56
2022-12-25T04:07:35.641Z,97571.97
2022-12-25T04:09:55.921Z,97572.22
2022-12-25T04:12:16.216Z,97568.81
2022-12-25T04:14:36.592Z,97575.97
2022-12-25T04:16:56.844Z,97581.44
2022-12-25T04:19:17.116Z,97575.91
2022-12-25T04:21:37.813Z,97574.16
2022-12-25T04:24:00.945Z,97578.53
2022-12-25T04:26:21.590Z,97566.91
2022-12-25T04:28:41.902Z,97577.41
2022-12-25T04:31:02.762Z,97572.91
2022-12-25T04:33:22.941Z,97567.94
2022-12-25T04:35:49.085Z,97571.09
2022-12-25T04:37:56.857Z,97571.19
2022-12-25T04:40:08.756Z,97577.84
2022-12-25T04:42:16.636Z,97574.94
2022-12-25T04:44:24.547Z,97570.34
2022-12-25T04:46:32.520Z,97581.09
2022-12-25T04:48:40.729Z,97581.94
2022-12-25T04:50:48.501Z,97580.34
2022-12-25T04:52:56.519Z,97590.31
2022-12-25T04:55:08.421Z,97584.34
2022-12-25T04:57:16.240Z,97578.09
2022-12-25T04:59:24.305Z,97576.50
2022-12-25T05:01:32.385Z,97576.16
2022-12-25T05:03:40.695Z,97581.00
2022-12-25T05:05:48.521Z,97583.63
2022-12-25T05:07:56.234Z,97578.34
2022-12-25T05:10:04.028Z,97570.59
2022-12-25T05:12:15.499Z,97568.44
2022-12-25T05:14:23.397Z,97561.44
2022-12-25T05:16:31.454Z,97565.03
2022-12-25T05:18:39.554Z,97562.47
2022-12-25T05:20:54.953Z,97563.50
2022-12-25T05:23:02.785Z,97561.94
2022-12-25T05:25:11.386Z,97554.84
2022-12-25T05:27:21.857Z,97559.66
2022-12-25T05:29:30.080Z,97560.41
2022-12-25T05:31:38.085Z,97564.00
2022-12-25T05:33:45.998Z,97568.00
2022-12-25T05:35:53.824Z,97559.41
2022-12-25T05:38:01.676Z,97557.41
2022-12-25T05:40:10.766Z,97554.94
2022-12-25T05:42:22.432Z,97561.78
2022-12-25T05:44:30.272Z,97570.63
2022-12-25T05:46:38.332Z,97568.91
2022-12-25T05:48:46.372Z,97570.03
2022-12-25T05:50:54.433Z,97555.78
2022-12-25T05:53:07.830Z,97552.44
2022-12-25T05:55:17.928Z,97554.22
2022-12-25T05:57:28.705Z,97549.03
2022-12-25T05:59:37.122Z,97551.44
2022-12-25T06:01:45.064Z,97544.84
2022-12-25T06:03:53.207Z,97550.16
2022-12-25T06:06:05.212Z,97545.59
2022-12-25T06:08:13.004Z,97545.53
2022-12-25T06:10:21.208Z,97545.53
2022-12-25T06:12:31.977Z,97534.00
2022-12-25T06:14:39.800Z,97537.34
2022-12-25T06:16:48.044Z,97535.28
2022-12-25T06:18:56.165Z,97549.25
2022-12-25T06:21:03.889Z,97543.13
2022-12-25T06:23:13.134Z,97537.72
2022-12-25T06:25:21.072Z,97539.34
2022-12-25T06:27:31.756Z,97539.41
2022-12-25T06:29:39.593Z,97537.91
2022-12-25T06:31:47.580Z,97537.06
2022-12-25T06:33:55.584Z,97536.88
2022-12-25T06:36:08.308Z,97543.03
2022-12-25T06:38:16.260Z,97535.16
2022-12-25T06:40:24.177Z,97538.66
2022-12-25T06:42:34.519Z,97548.91
2022-12-25T06:44:42.543Z,97539.72
2022-12-25T06:46:51.428Z,97539.97
2022-12-25T06:49:01.656Z,97535.34
2022-12-25T06:51:10.157Z,97538.31
2022-12-25T06:53:20.303Z,97545.13
2022-12-25T06:55:28.072Z,97547.03
2022-12-25T06:57:38.575Z,97549.44
2022-12-25T06:59:49.894Z,97550.59
2022-12-25T07:02:03.082Z,97550.44
2022-12-25T07:04:16.597Z,97550.44
2022-12-25T07:06:24.487Z,97544.66
2022-12-25T07:08:32.360Z,97552.03
2022-12-25T07:10:40.121Z,97544.13
2022-12-25T07:12:52.773Z,97547.47
2022-12-25T07:15:00.658Z,97559.00
2022-12-25T07:17:12.993Z,97567.97
2022-12-25T07:19:22.703Z,97573.28
2022-12-25T07:21:35.311Z,97571.94
2022-12-25T07:23:45.127Z,97583.22
2022-12-25T07:25:57.355Z,97574.22
2022-12-25T07:28:19.752Z,97574.22
2022-12-25T07:30:30.211Z,97579.34
2022-12-25T07:32:46.828Z,97560.44
2022-12-25T07:34:58.370Z,97557.31
2022-12-25T07:37:06.798Z,97564.78
2022-12-25T07:39:16.119Z,97568.41
2022-12-25T07:41:24.941Z,97557.88
2022-12-25T07:43:42.561Z,97571.09
2022-12-25T07:45:50.718Z,97572.16
2022-12-25T07:48:04.899Z,97558.16
2022-12-25T07:50:15.244Z,97560.16
2022-12-25T07:52:24.312Z,97554.38
2022-12-25T07:54:33.817Z,97540.56
2022-12-25T07:56:43.304Z,97544.53
2022-12-25T07:58:58.997Z,97544.97
2022-12-25T08:01:08.769Z,97532.78
2022-12-25T08:03:17.215Z,97534.66
2022-12-25T08:05:26.771Z,97516.22
2022-12-25T08:07:35.801Z,97524.53
2022-12-25T08:09:47.123Z,97517.69
2022-12-25T08:11:58.961Z,97521.97
2022-12-25T08:14:11.674Z,97513.44
2022-12-25T08:16:21.504Z,97526.50
2022-12-25T08:18:33.555Z,97523.41
2022-12-25T08:20:42.093Z,97525.38
2022-12-25T08:22:50.364Z,97526.06
2022-12-25T08:24:59.943Z,97527.63
2022-12-25T08:27:09.485Z,97513.72
2022-12-25T08:29:20.029Z,97532.16
2022-12-25T08:31:29.583Z,97530.88
2022-12-25T08:33:42.215Z,97529.69
2022-12-25T08:35:50.232Z,97533.69
2022-12-25T08:37:59.682Z,97536.88
2022-12-25T08:40:09.695Z,97541.03
2022-12-25T08:42:20.106Z,97542.03
2022-12-25T08:44:35.971Z,97555.75
2022-12-25T08:46:44.368Z,97569.06
2022-12-25T08:48:54.460Z,97578.75
2022-12-25T08:51:06.963Z,97581.31
2022-12-25T08:53:18.658Z,97577.59
2022-12-25T08:55:30.955Z,97570.06
2022-12-25T08:57:39.712Z,97574.31
2022-12-25T08:59:50.673Z,97572.13
2022-12-25T09:01:58.598Z,97560.34
2022-12-25T09:04:06.603Z,97558.84
2022-12-25T09:06:18.710Z,97553.91
2022-12-25T09:08:26.605Z,97549.06
2022-12-25T09:10:38.732Z,97539.50
2022-12-25T09:12:46.702Z,97530.97
2022-12-25T09:15:01.574Z,97524.34
2022-12-25T09:17:09.536Z,97520.94
2022-12-25T09:19:22.177Z,97512.69
2022-12-25T09:21:29.906Z,97522.91
2022-12-25T09:23:41.677Z,97522.34
2022-12-25T09:25:49.757Z,97530.50
2022-12-25T09:27:58.750Z,97545.81
2022-12-25T09:30:12.267Z,97560.69
2022-12-25T09:32:20.419Z,97572.97
2022-12-25T09:34:28.250Z,97599.38
2022-12-25T09:36:36.795Z,97602.09
2022-12-25T09:38:44.748Z,97598.84
2022-12-25T09:41:02.268Z,97603.72
2022-12-25T09:43:18.723Z,97601.75
2022-12-25T09:45:34.920Z,97601.56
2022-12-25T09:47:45.659Z,97603.84
2022-12-25T09:50:01.597Z,97613.06
2022-12-25T09:52:14.531Z,97616.94
2022-12-25T09:54:28.029Z,97630.91
2022-12-25T09:56:36.551Z,97628.81
2022-12-25T09:58:44.552Z,97638.66
2022-12-25T10:01:04.504Z,97628.91
2022-12-25T10:03:53.858Z,97630.56
2022-12-25T10:06:14.543Z,97611.13
2022-12-25T10:08:37.866Z,97603.63
2022-12-25T10:10:54.973Z,97604.09
2022-12-25T10:13:12.615Z,97602.97
2022-12-25T10:15:35.806Z,97597.66
2022-12-25T10:18:07.786Z,97594.06
2022-12-25T10:20:27.363Z,97591.00
2022-12-25T10:22:39.001Z,97589.34
2022-12-25T10:24:51.869Z,97580.84
2022-12-25T10:26:59.895Z,97581.03
2022-12-25T10:29:15.565Z,97584.38
2022-12-25T10:31:26.350Z,97583.50
2022-12-25T10:33:36.982Z,97574.38
2022-12-25T10:35:45.504Z,97573.91
2022-12-25T10:38:01.501Z,97575.94
2022-12-25T10:40:31.402Z,97568.75
2022-12-25T10:42:49.239Z,97563.63
2022-12-25T10:45:01.311Z,97559.34
2022-12-25T10:47:09.226Z,97547.69
2022-12-25T10:49:22.959Z,97545.72
2022-12-25T10:51:35.018Z,97550.56
2022-12-25T10:53:45.954Z,97541.38
2022-12-25T10:55:58.395Z,97537.25
2022-12-25T10:58:06.437Z,97535.38
2022-12-25T11:00:23.441Z,97536.88
2022-12-25T11:02:38.225Z,97527.97
2022-12-25T11:04:49.363Z,97526.66
2022-12-25T11:07:04.403Z,97524.44
2022-12-25T11:09:20.159Z,97519.00
2022-12-25T11:11:30.910Z,97512.81
2022-12-25T11:13:42.496Z,97514.50
2022-12-25T11:15:52.196Z,97512.16
2022-12-25T11:18:00.451Z,97516.19
2022-12-25T11:20:23.216Z,97512.50
2022-12-25T11:22:40.011Z,97510.94
2022-12-25T11:24:47.912Z,97504.91
2022-12-25T11:26:58.521Z,97509.09
2022-12-25T11:29:08.322Z,97501.47
2022-12-25T11:31:24.398Z,97510.06
2022-12-25T11:33:38.175Z,97502.38
2022-12-25T11:35:53.425Z,97503.34
2022-12-25T11:38:01.845Z,97498.22
2022-12-25T11:40:18.230Z,97502.63
2022-12-25T11:42:30.097Z,97495.97
2022-12-25T11:44:45.438Z,97500.69
2022-12-25T11:46:55.195Z,97496.06
2022-12-25T11:49:08.585Z,97494.66
2022-12-25T11:51:20.721Z,97483.19
2022-12-25T11:53:34.992Z,97475.59
2022-12-25T11:55:46.277Z,97472.94
2022-12-25T11:58:00.403Z,97479.78
2022-12-25T12:00:11.289Z,97481.38
2022-12-25T12:02:27.909Z,97476.53
2022-12-25T12:04:43.175Z,97468.75
2022-12-25T12:06:59.147Z,97459.03
2022-12-25T12:09:20.731Z,97452.94
2022-12-25T12:11:38.803Z,97445.06
2022-12-25T12:14:05.293Z,97432.19
2022-12-25T12:16:13.506Z,97429.75
2022-12-25T12:18:24.859Z,97423.97
2022-12-25T12:20:35.749Z,97415.88
2022-12-25T12:22:53.125Z,97418.06
2022-12-25T12:25:04.450Z,97408.00
2022-12-25T12:27:27.339Z,97409.78
2022-12-25T12:29:42.978Z,97399.38
2022-12-25T12:31:53.949Z,97401.63
2022-12-25T12:34:02.499Z,97396.22
2022-12-25T12:36:16.159Z,97398.75
2022-12-25T12:38:27.738Z,97394.09
2022-12-25T12:40:39.356Z,97398.41
2022-12-25T12:42:50.724Z,97402.34
2022-12-25T12:45:00.957Z,97403.28
2022-12-25T12:47:08.836Z,97407.41
2022-12-25T12:49:25.143Z,97408.91
2022-12-25T12:51:34.774Z,97416.09
2022-12-25T12:53:46.370Z,97415.38
2022-12-25T12:55:55.597Z,97410.53
2022-12-25T12:58:05.302Z,97414.81
2022-12-25T13:00:20.204Z,97413.56
2022-12-25T13:02:56.379Z,97420.38
2022-12-25T13:05:06.682Z,97411.38
2022-12-25T13:07:32.342Z,97412.00
2022-12-25T13:09:57.335Z,97409.19
2022-12-25T13:12:09.552Z,97412.00
2022-12-25T13:14:20.580Z,97405.09
2022-12-25T13:16:32.308Z,97399.63
2022-12-25T13:18:42.584Z,97391.03
2022-12-25T13:20:55.312Z,97376.84
2022-12-25T13:23:03.226Z,97380.84
2022-12-25T13:25:23.707Z,97388.84
2022-12-25T13:27:33.713Z,97385.56
2022-12-25T13:29:41.931Z,97396.00
2022-12-25T13:31:50.888Z,97393.34
2022-12-25T13:34:02.785Z,97394.28
2022-12-25T13:36:14.286Z,97402.28
2022-12-25T13:38:22.731Z,97396.34
2022-12-25T13:40:33.352Z,97403.47
2022-12-25T13:42:40.002Z,97401.91
2022-12-25T13:44:50.851Z,97397.28
2022-12-25T13:46:58.659Z,97387.47
2022-12-25T13:49:15.242Z,97389.06
2022-12-25T13:51:23.499Z,97389.44
2022-12-25T13:53:31.605Z,97378.88
2022-12-25T13:55:42.884Z,97383.25
2022-12-25T13:57:55.547Z,97386.09
2022-12-25T14:00:04.588Z,97384.53
2022-12-25T14:02:22.969Z,97387.56
2022-12-25T14:04:31.751Z,97385.13
2022-12-25T14:06:39.665Z,97388.59
2022-12-25T14:08:48.698Z,97385.22
2022-12-25T14:11:00.193Z,97388.22
2022-12-25T14:13:11.380Z,97383.44
2022-12-25T14:15:23.307Z,97374.16
2022-12-25T14:17:31.329Z,97386.53
2022-12-25T14:19:39.211Z,97377.16
2022-12-25T14:21:49.515Z,97386.09
2022-12-25T14:23:57.743Z,97379.94
2022-12-25T14:26:08.352Z,97387.22
2022-12-25T14:28:22.574Z,97375.44
2022-12-25T14:30:32.409Z,97382.09
2022-12-25T14:32:46.527Z,97381.88
2022-12-25T14:34:57.123Z,97379.91
2022-12-25T14:37:07.180Z,97368.03
2022-12-25T14:39:29.840Z,97365.94
2022-12-25T14:41:42.441Z,97369.28
2022-12-25T14:43:55.063Z,97371.94
2022-12-25T14:46:06.420Z,97367.78
2022-12-25T14:48:24.771Z,97370.19
2022-12-25T14:50:37.502Z,97367.16
2022-12-25T14:52:47.722Z,97377.06
2022-12-25T14:55:11.745Z,97368.47
2022-12-25T14:57:22.988Z,97367.50
2022-12-25T14:59:31.015Z,97364.19
2022-12-25T15:01:41.936Z,97372.53
2022-12-25T15:03:50.749Z,97368.69
2022-12-25T15:06:03.017Z,97368.28
2022-12-25T15:08:26.080Z,97373.72
2022-12-25T15:13:05.397Z,97373.44
2022-12-25T15:15:13.789Z,97371.13
2022-12-25T15:17:28.436Z,97395.19
2022-12-25T15:19:39.163Z,97392.88
2022-12-25T15:21:47.360Z,97391.25
2022-12-25T15:23:55.888Z,97390.22
2022-12-25T15:26:06.419Z,97398.53
2022-12-25T15:28:14.515Z,97384.69
2022-12-25T15:30:23.026Z,97390.47
2022-12-25T15:32:30.859Z,97394.19
2022-12-25T15:34:38.698Z,97393.13
2022-12-25T15:36:47.289Z,97396.53
2022-12-25T15:38:56.536Z,97403.63
2022-12-25T15:41:07.464Z,97401.47
2022-12-25T15:45:46.904Z,97406.41
2022-12-25T15:47:58.123Z,97397.91
2022-12-25T15:50:06.371Z,97384.81
2022-12-25T15:52:17.673Z,97393.91
2022-12-25T15:54:25.538Z,97386.88
2022-12-25T15:56:43.156Z,97395.91
2022-12-25T15:58:50.946Z,97401.47
2022-12-25T16:00:59.220Z,97402.44
2022-12-25T16:03:07.667Z,97407.97
2022-12-25T16:05:15.653Z,97408.22
2022-12-25T16:07:26.050Z,97413.66
2022-12-25T16:09:33.900Z,97412.59
2022-12-25T16:11:44.872Z,97414.00
2022-12-25T16:13:52.721Z,97406.44
2022-12-25T16:16:01.731Z,97418.91
2022-12-25T16:18:10.014Z,97417.00
2022-12-25T16:20:18.406Z,97423.72
2022-12-25T16:22:28.733Z,97414.03
2022-12-25T16:24:36.672Z,97417.66
2022-12-25T16:26:47.485Z,97424.16
2022-12-25T16:28:55.327Z,97437.06
2022-12-25T16:31:03.216Z,97429.81
2022-12-25T16:33:13.316Z,97431.94
2022-12-25T16:35:21.420Z,97431.19
2022-12-25T16:37:30.026Z,97439.41
2022-12-25T16:39:37.989Z,97432.47
2022-12-25T16:41:49.044Z,97427.66
2022-12-25T16:43:56.992Z,97430.56
2022-12-25T16:46:10.573Z,97429.81
2022-12-25T16:48:18.550Z,97425.38
2022-12-25T16:50:26.667Z,97434.88
2022-12-25T16:52:35.876Z,97430.09
2022-12-25T16:54:43.744Z,97436.47
2022-12-25T16:56:54.652Z,97435.50
2022-12-25T16:59:02.645Z,97434.22
2022-12-25T17:01:11.872Z,97446.78
2022-12-25T17:03:19.765Z,97448.09
2022-12-25T17:05:27.899Z,97462.84
2022-12-25T17:07:37.935Z,97462.06
2022-12-25T17:09:46.486Z,97448.03
2022-12-25T17:11:57.061Z,97439.22
2022-12-25T17:14:07.031Z,97433.28
2022-12-25T17:16:16.955Z,97430.91
2022-12-25T17:18:25.035Z,97435.28
2022-12-25T17:20:32.985Z,97428.84
2022-12-25T17:22:40.816Z,97420.94
2022-12-25T17:24:48.675Z,97420.97
2022-12-25T17:26:59.262Z,97421.81
2022-12-25T17:29:07.124Z,97421.59
2022-12-25T17:31:17.145Z,97432.53
2022-12-25T17:33:24.987Z,97429.44
2022-12-25T17:35:32.868Z,97437.66
2022-12-25T17:37:41.069Z,97437.97
2022-12-25T17:39:50.012Z,97447.94
2022-12-25T17:42:00.642Z,97451.78
2022-12-25T17:44:08.744Z,97454.97
2022-12-25T17:46:18.996Z,97449.53
2022-12-25T17:48:27.141Z,97453.81
2022-12-25T17:50:41.033Z,97451.25
2022-12-25T17:52:49.372Z,97462.84
2022-12-25T17:54:57.100Z,97472.94
2022-12-25T17:57:07.804Z,97480.16
2022-12-25T17:59:18.852Z,97479.56
2022-12-25T18:01:29.310Z,97478.19
2022-12-25T18:03:37.617Z,97462.97
2022-12-25T18:05:45.629Z,97474.31
2022-12-25T18:07:53.523Z,97466.47
2022-12-25T18:10:02.158Z,97468.81
2022-12-25T18:12:12.907Z,97477.94
2022-12-25T18:14:21.061Z,97477.75
2022-12-25T18:16:30.342Z,97470.72
2022-12-25T18:18:38.751Z,97474.03
2022-12-25T18:20:46.740Z,97482.31
2022-12-25T18:22:55.653Z,97483.59
2022-12-25T18:25:03.512Z,97501.47
2022-12-25T18:27:14.169Z,97498.63
2022-12-25T18:29:21.947Z,97504.66
2022-12-25T18:31:30.620Z,97506.34
2022-12-25T18:33:38.637Z,97511.66
2022-12-25T18:35:47.782Z,97492.72
2022-12-25T18:37:55.828Z,97494.97
2022-12-25T18:40:03.932Z,97504.13
2022-12-25T18:42:26.929Z,97496.34
2022-12-25T18:44:34.940Z,97502.00
2022-12-25T18:46:42.711Z,97497.09
2022-12-25T18:48:50.701Z,97497.59
2022-12-25T18:51:01.255Z,97494.22
2022-12-25T18:53:10.401Z,97496.22
2022-12-25T18:55:18.355Z,97498.22
2022-12-25T18:57:29.412Z,97502.16
2022-12-25T18:59:37.271Z,97509.72
2022-12-25T19:01:45.410Z,97513.31
2022-12-25T19:04:00.178Z,97503.97
2022-12-25T19:06:12.505Z,97507.78
2022-12-25T19:08:20.561Z,97498.00
2022-12-25T19:10:28.457Z,97508.75
2022-12-25T19:12:39.913Z,97512.13
2022-12-25T19:14:48.634Z,97502.28
2022-12-25T19:16:57.111Z,97505.59
2022-12-25T19:19:05.655Z,97508.66
2022-12-25T19:21:16.255Z,97505.03
2022-12-25T19:23:24.245Z,97512.06
2022-12-25T19:25:32.500Z,97515.03
2022-12-25T19:27:43.280Z,97515.72
2022-12-25T19:29:51.233Z,97510.06
2022-12-25T19:31:59.519Z,97510.16
2022-12-25T19:34:07.935Z,97504.84
2022-12-25T19:36:17.855Z,97513.69
2022-12-25T19:38:25.879Z,97512.91
2022-12-25T19:40:34.995Z,97503.28
2022-12-25T19:42:47.308Z,97501.22
2022-12-25T19:44:55.972Z,97508.91
2022-12-25T19:47:03.873Z,97505.16
2022-12-25T19:49:15.264Z,97507.56
2022-12-25T19:51:25.497Z,97508.69
2022-12-25T19:53:34.498Z,97510.69
2022-12-25T19:55:42.392Z,97511.88
2022-12-25T19:57:52.977Z,97514.88
2022-12-25T20:00:00.856Z,97527.63
2022-12-25T20:02:09.028Z,97521.69
2022-12-25T20:04:18.280Z,97516.69
2022-12-25T20:06:28.347Z,97526.47
2022-12-25T20:08:37.085Z,97522.72
2022-12-25T20:10:46.739Z,97531.56
2022-12-25T20:12:57.425Z,97521.25
2022-12-25T20:15:07.755Z,97531.78
2022-12-25T20:17:16.291Z,97530.28
2022-12-25T20:19:24.446Z,97531.97
2022-12-25T20:21:33.027Z,97531.25
2022-12-25T20:23:41.124Z,97541.44
2022-12-25T20:25:49.409Z,97532.41
2022-12-25T20:28:00.501Z,97532.81
2022-12-25T20:30:09.804Z,97536.31
2022-12-25T20:32:19.293Z,97536.03
2022-12-25T20:34:27.432Z,97538.03
2022-12-25T20:36:42.593Z,97531.31
2022-12-25T20:38:50.444Z,97532.72
2022-12-25T20:41:26.380Z,97533.66
2022-12-25T20:43:33.006Z,97539.41
2022-12-25T20:45:47.070Z,97534.63
2022-12-25T20:47:55.238Z,97530.66
2022-12-25T20:50:03.682Z,97531.22
2022-12-25T20:52:11.831Z,97528.25
2022-12-25T20:54:19.568Z,97534.16
2022-12-25T20:56:30.448Z,97529.28
2022-12-25T20:58:41.318Z,97535.84
2022-12-25T21:00:49.314Z,97534.47
2022-12-25T21:02:57.724Z,97540.16
2022-12-25T21:05:07.082Z,97532.72
2022-12-25T21:07:15.103Z,97543.53
2022-12-25T21:09:23.507Z,97534.94
2022-12-25T21:11:32.239Z,97541.88
2022-12-25T21:13:45.496Z,97544.53
2022-12-25T21:15:54.993Z,97537.63
2022-12-25T21:18:03.844Z,97536.88
2022-12-25T21:20:12.136Z,97547.63
2022-12-25T21:22:26.836Z,97550.22
2022-12-25T21:24:36.119Z,97551.47
2022-12-25T21:26:47.976Z,97561.47
2022-12-25T21:29:03.237Z,97558.38
2022-12-25T21:31:14.074Z,97540.91
2022-12-25T21:33:34.485Z,97547.63
2022-12-25T21:35:42.323Z,97540.72
2022-12-25T21:37:53.098Z,97541.47
2022-12-25T21:40:11.330Z,97540.00
2022-12-25T21:42:25.330Z,97537.47
2022-12-25T21:44:36.073Z,97539.13
2022-12-25T21:46:44.389Z,97546.06
2022-12-25T21:48:52.655Z,97549.88
2022-12-25T21:51:20.519Z,97555.28
2022-12-25T21:53:29.237Z,97552.50
2022-12-25T21:55:42.288Z,97549.00
2022-12-25T21:57:50.617Z,97556.63
2022-12-25T22:00:00.996Z,97555.44
2022-12-25T22:02:13.340Z,97558.25
2022-12-25T22:04:23.219Z,97558.25
2022-12-25T22:06:45.578Z,97558.91
2022-12-25T22:08:53.647Z,97563.16
2022-12-25T22:11:01.971Z,97573.06
2022-12-25T22:13:22.331Z,97577.19
2022-12-25T22:15:45.515Z,97572.19
2022-12-25T22:18:05.788Z,97579.75
2022-12-25T22:20:17.648Z,97580.22
2022-12-25T22:22:27.591Z,97575.53
2022-12-25T22:24:35.911Z,97581.19
2022-12-25T22:26:44.730Z,97572.50
2022-12-25T22:28:52.531Z,97574.88
2022-12-25T22:31:06.345Z,97581.84
2022-12-25T22:33:14.435Z,97587.38
2022-12-25T22:35:23.290Z,97583.66
2022-12-25T22:37:31.048Z,97583.53
2022-12-25T22:39:39.599Z,97579.66
2022-12-25T22:41:48.162Z,97579.78
2022-12-25T22:46:27.162Z,97586.59
2022-12-25T22:48:35.156Z,97574.47
2022-12-25T22:50:43.040Z,97572.94
2022-12-25T22:52:50.968Z,97580.50
2022-12-25T22:54:58.963Z,97587.75
2022-12-25T22:57:07.443Z,97587.19
2022-12-25T22:59:17.191Z,97591.13
2022-12-25T23:01:27.829Z,97589.16
2022-12-25T23:03:36.061Z,97599.59
2022-12-25T23:05:44.155Z,97598.28
2022-12-25T23:07:51.874Z,97599.44
2022-12-25T23:09:59.865Z,97599.81
2022-12-25T23:12:28.969Z,97604.00
2022-12-25T23:14:39.516Z,97599.81
2022-12-25T23:16:50.392Z,97604.41
2022-12-25T23:19:11.182Z,97611.25
2022-12-25T23:21:33.420Z,97620.75
2022-12-25T23:23:53.922Z,97627.03
2022-12-25T23:26:12.060Z,97618.28
2022-12-25T23:28:40.501Z,97623.81
2022-12-25T23:30:46.205Z,97629.13
2022-12-25T23:32:56.888Z,97628.72
2022-12-25T23:35:05.093Z,97621.72
2022-12-25T23:37:14.070Z,97626.19
2022-12-25T23:39:22.487Z,97626.41
2022-12-25T23:41:31.658Z,97624.66
2022-12-25T23:43:40.141Z,97641.75
2022-12-25T23:45:48.077Z,97635.88
2022-12-25T23:48:00.476Z,97631.97
2022-12-25T23:50:11.882Z,97639.34
2022-12-25T23:52:20.036Z,97639.63
2022-12-25T23:54:31.277Z,97646.56
2022-12-25T23:56:40.749Z,97638.50
2022-12-25T23:58:51.972Z,97643.72
